createdAt,value
2023-03-01T00:02:01.101Z,28.39
2023-03-01T00:04:28.577Z,28.24
2023-03-01T00:06:54.971Z,28.34
2023-03-01T00:09:21.283Z,28.37
2023-03-01T00:11:47.600Z,28.25
2023-03-01T00:14:13.930Z,28.21
2023-03-01T00:16:40.994Z,28.13
2023-03-01T00:19:14.430Z,28.13
2023-03-01T00:21:40.924Z,28.40
2023-03-01T00:24:07.408Z,28.17
2023-03-01T00:26:33.756Z,28.35
2023-03-01T00:29:00.160Z,28.29
2023-03-01T00:31:27.604Z,28.26
2023-03-01T00:34:00.215Z,28.25
2023-03-01T00:36:27.218Z,28.17
2023-03-01T00:38:53.749Z,28.17
2023-03-01T00:41:20.158Z,28.22
2023-03-01T00:43:46.484Z,28.25
2023-03-01T00:46:16.850Z,28.25
2023-03-01T00:48:43.193Z,28.26
2023-03-01T00:51:10.240Z,28.34
2023-03-01T00:53:36.549Z,28.28
2023-03-01T00:56:02.933Z,28.38
2023-03-01T00:58:29.305Z,28.32
2023-03-01T01:00:55.697Z,28.24
2023-03-01T01:03:22.104Z,28.41
2023-03-01T01:05:48.415Z,28.42
2023-03-01T01:08:14.739Z,28.35
2023-03-01T01:10:41.072Z,28.34
2023-03-01T01:13:07.390Z,28.47
2023-03-01T01:15:36.440Z,28.33
2023-03-01T01:18:02.811Z,28.24
2023-03-01T01:20:29.148Z,28.41
2023-03-01T01:22:55.517Z,28.42
2023-03-01T01:25:21.892Z,28.36
2023-03-01T01:27:48.208Z,28.27
2023-03-01T01:30:14.536Z,28.30
2023-03-01T01:32:40.893Z,28.27
2023-03-01T01:35:07.301Z,28.31
2023-03-01T01:37:33.856Z,28.31
2023-03-01T01:40:00.394Z,28.23
2023-03-01T01:42:26.763Z,28.25
2023-03-01T01:45:11.901Z,28.17
2023-03-01T01:47:38.213Z,28.21
2023-03-01T01:50:04.579Z,28.20
2023-03-01T01:52:32.646Z,28.27
2023-03-01T01:55:00.801Z,28.44
2023-03-01T01:57:28.632Z,28.22
2023-03-01T01:59:55.753Z,28.23
2023-03-01T02:02:22.170Z,28.32
2023-03-01T02:04:48.981Z,28.50
2023-03-01T02:07:16.320Z,28.37
2023-03-01T02:09:46.941Z,28.42
2023-03-01T02:12:13.760Z,28.42
2023-03-01T02:14:40.090Z,28.45
2023-03-01T02:17:06.402Z,28.57
2023-03-01T02:19:48.051Z,28.51
2023-03-01T02:22:19.677Z,28.43
2023-03-01T02:24:58.287Z,28.52
2023-03-01T02:27:25.669Z,28.52
2023-03-01T02:29:52.008Z,28.40
2023-03-01T02:32:25.978Z,28.36
2023-03-01T02:34:53.188Z,28.36
2023-03-01T02:37:25.762Z,28.36
2023-03-01T02:39:54.402Z,28.23
2023-03-01T02:42:27.107Z,28.31
2023-03-01T02:44:54.685Z,28.43
2023-03-01T02:47:20.991Z,28.34
2023-03-01T02:49:47.322Z,28.47
2023-03-01T02:52:22.679Z,28.52
2023-03-01T02:54:54.855Z,28.38
2023-03-01T02:57:21.675Z,28.28
2023-03-01T02:59:47.981Z,28.04
2023-03-01T03:02:39.672Z,28.20
2023-03-01T03:05:07.065Z,28.22
2023-03-01T03:07:35.094Z,28.33
2023-03-01T03:10:01.819Z,28.33
2023-03-01T03:12:28.138Z,28.22
2023-03-01T03:14:54.459Z,28.31
2023-03-01T03:17:20.813Z,28.19
2023-03-01T03:19:47.145Z,28.26
2023-03-01T03:22:13.477Z,28.32
2023-03-01T03:24:39.789Z,28.34
2023-03-01T03:27:06.212Z,28.33
2023-03-01T03:29:32.536Z,28.37
2023-03-01T03:31:58.970Z,28.39
2023-03-01T03:34:25.319Z,28.06
2023-03-01T03:36:57.632Z,28.28
2023-03-01T03:39:24.436Z,28.23
2023-03-01T03:41:50.807Z,28.08
2023-03-01T03:44:17.126Z,27.96
2023-03-01T03:46:43.434Z,27.93
2023-03-01T03:49:09.781Z,27.91
2023-03-01T03:51:36.098Z,28.04
2023-03-01T03:54:02.404Z,27.93
2023-03-01T03:56:29.083Z,27.95
2023-03-01T03:58:55.450Z,27.86
2023-03-01T04:01:21.819Z,28.06
2023-03-01T04:03:48.148Z,27.90
2023-03-01T04:06:14.820Z,27.98
2023-03-01T04:08:41.891Z,27.97
2023-03-01T04:11:27.043Z,27.90
2023-03-01T04:13:54.094Z,27.96
2023-03-01T04:16:20.439Z,27.93
2023-03-01T04:18:46.845Z,28.09
2023-03-01T04:21:13.232Z,28.12
2023-03-01T04:23:40.024Z,28.35
2023-03-01T04:26:06.385Z,28.35
2023-03-01T04:28:36.960Z,28.32
2023-03-01T04:31:14.052Z,28.39
2023-03-01T04:33:41.500Z,28.44
2023-03-01T04:36:09.671Z,28.35
2023-03-01T04:38:38.112Z,28.42
2023-03-01T04:41:05.390Z,28.42
2023-03-01T04:43:31.744Z,28.32
2023-03-01T04:46:03.661Z,28.39
2023-03-01T04:48:30.537Z,28.37
2023-03-01T04:50:56.876Z,28.35
2023-03-01T04:53:23.186Z,28.36
2023-03-01T04:55:49.519Z,28.53
2023-03-01T04:58:15.824Z,28.23
2023-03-01T05:00:42.140Z,28.21
2023-03-01T05:03:08.769Z,28.31
2023-03-01T05:05:36.012Z,28.39
2023-03-01T05:08:03.512Z,28.31
2023-03-01T05:10:30.524Z,28.47
2023-03-01T05:12:58.252Z,28.47
2023-03-01T05:15:27.726Z,28.47
2023-03-01T05:17:55.210Z,28.40
2023-03-01T05:20:23.838Z,28.35
2023-03-01T05:22:50.788Z,28.63
2023-03-01T05:25:17.839Z,28.78
2023-03-01T05:27:44.181Z,28.62
2023-03-01T05:30:16.727Z,28.67
2023-03-01T05:32:44.296Z,28.62
2023-03-01T05:35:14.097Z,28.64
2023-03-01T05:37:42.466Z,28.48
2023-03-01T05:40:16.371Z,28.56
2023-03-01T05:42:43.667Z,28.59
2023-03-01T05:45:10.564Z,28.68
2023-03-01T05:47:36.958Z,28.69
2023-03-01T05:50:03.265Z,28.73
2023-03-01T05:52:29.849Z,28.70
2023-03-01T05:54:56.389Z,28.75
2023-03-01T05:57:22.760Z,28.60
2023-03-01T05:59:49.064Z,28.67
2023-03-01T06:02:15.389Z,28.54
2023-03-01T06:04:41.781Z,28.60
2023-03-01T06:07:08.190Z,28.81
2023-03-01T06:09:34.536Z,28.58
2023-03-01T06:12:00.961Z,28.83
2023-03-01T06:14:27.283Z,28.66
2023-03-01T06:16:53.608Z,28.76
2023-03-01T06:19:19.926Z,28.61
2023-03-01T06:21:46.255Z,28.76
2023-03-01T06:24:12.563Z,28.73
2023-03-01T06:26:38.870Z,28.81
2023-03-01T06:29:05.176Z,28.76
2023-03-01T06:31:31.523Z,28.76
2023-03-01T06:33:57.860Z,28.93
2023-03-01T06:36:24.184Z,28.89
2023-03-01T06:38:50.492Z,28.75
2023-03-01T06:41:16.825Z,28.83
2023-03-01T06:43:43.134Z,28.57
2023-03-01T06:46:09.510Z,28.61
2023-03-01T06:48:35.876Z,28.62
2023-03-01T06:51:02.200Z,28.53
2023-03-01T06:53:29.017Z,28.52
2023-03-01T06:55:56.011Z,28.44
2023-03-01T06:58:22.336Z,28.54
2023-03-01T07:00:48.674Z,28.45
2023-03-01T07:03:15.017Z,28.39
2023-03-01T07:05:41.345Z,28.44
2023-03-01T07:08:07.664Z,28.37
2023-03-01T07:10:33.975Z,28.17
2023-03-01T07:13:00.281Z,28.22
2023-03-01T07:15:26.610Z,28.35
2023-03-01T07:17:52.988Z,28.17
2023-03-01T07:20:19.682Z,28.19
2023-03-01T07:22:46.001Z,28.19
2023-03-01T07:25:12.387Z,28.20
2023-03-01T07:27:38.708Z,28.02
2023-03-01T07:30:05.283Z,27.72
2023-03-01T07:32:31.653Z,27.75
2023-03-01T07:34:58.045Z,27.38
2023-03-01T07:37:24.413Z,27.60
2023-03-01T07:39:50.786Z,27.54
2023-03-01T07:42:17.111Z,26.99
2023-03-01T07:44:43.431Z,27.14
2023-03-01T07:47:09.775Z,27.12
2023-03-01T07:49:36.112Z,27.10
2023-03-01T07:52:02.430Z,27.12
2023-03-01T07:54:28.757Z,26.99
2023-03-01T07:56:55.760Z,24.34
2023-03-01T07:59:22.113Z,25.76
2023-03-01T08:01:48.448Z,25.30
2023-03-01T08:04:14.905Z,25.05
2023-03-01T08:06:41.235Z,22.88
2023-03-01T08:09:08.814Z,22.92
2023-03-01T08:11:35.160Z,22.19
2023-03-01T08:14:01.654Z,22.28
2023-03-01T08:16:28.181Z,22.68
2023-03-01T08:18:57.507Z,22.59
2023-03-01T08:21:23.850Z,23.49
2023-03-01T08:23:50.178Z,23.69
2023-03-01T08:26:17.735Z,23.79
2023-03-01T08:28:44.087Z,24.23
2023-03-01T08:31:26.940Z,24.23
2023-03-01T08:33:56.359Z,24.21
2023-03-01T08:36:23.341Z,24.53
2023-03-01T08:38:49.668Z,24.64
2023-03-01T08:41:15.975Z,24.81
2023-03-01T08:43:42.549Z,24.66
2023-03-01T08:46:08.963Z,24.73
2023-03-01T08:48:35.346Z,24.96
2023-03-01T08:51:08.486Z,24.96
2023-03-01T08:53:34.816Z,25.13
2023-03-01T08:56:01.898Z,24.99
2023-03-01T08:58:28.230Z,24.99
2023-03-01T09:00:54.540Z,24.96
2023-03-01T09:03:20.844Z,25.33
2023-03-01T09:05:47.159Z,25.08
2023-03-01T09:08:13.586Z,25.18
2023-03-01T09:10:40.427Z,25.17
2023-03-01T09:13:06.755Z,25.03
2023-03-01T09:15:34.384Z,25.17
2023-03-01T09:18:00.914Z,25.11
2023-03-01T09:20:27.234Z,25.13
2023-03-01T09:22:53.547Z,25.03
2023-03-01T09:25:19.855Z,24.58
2023-03-01T09:27:46.166Z,24.82
2023-03-01T09:30:12.619Z,24.81
2023-03-01T09:32:43.446Z,24.79
2023-03-01T09:35:09.800Z,24.39
2023-03-01T09:37:36.207Z,24.45
2023-03-01T09:40:04.875Z,24.43
2023-03-01T09:42:32.122Z,24.47
2023-03-01T09:45:05.598Z,24.50
2023-03-01T09:47:32.232Z,24.50
2023-03-01T09:50:18.771Z,24.71
2023-03-01T09:52:47.860Z,24.54
2023-03-01T09:55:15.037Z,24.54
2023-03-01T09:57:46.254Z,24.64
2023-03-01T10:00:18.273Z,24.71
2023-03-01T10:02:49.643Z,24.83
2023-03-01T10:05:30.742Z,24.73
2023-03-01T10:08:09.238Z,24.95
2023-03-01T10:10:36.343Z,25.08
2023-03-01T10:13:04.427Z,24.85
2023-03-01T10:15:35.700Z,25.03
2023-03-01T10:18:11.432Z,24.82
2023-03-01T10:20:46.341Z,25.00
2023-03-01T10:23:12.666Z,25.18
2023-03-01T10:25:45.098Z,25.33
2023-03-01T10:28:17.046Z,25.17
2023-03-01T10:30:44.773Z,25.31
2023-03-01T10:33:37.754Z,25.02
2023-03-01T10:36:04.141Z,25.00
2023-03-01T10:38:31.412Z,24.85
2023-03-01T10:41:00.454Z,25.13
2023-03-01T10:43:27.375Z,25.24
2023-03-01T10:45:55.702Z,25.10
2023-03-01T10:48:27.294Z,25.06
2023-03-01T10:50:59.846Z,25.29
2023-03-01T10:53:27.331Z,25.09
2023-03-01T10:56:00.603Z,24.96
2023-03-01T10:58:26.925Z,25.12
2023-03-01T11:01:03.824Z,24.98
2023-03-01T11:03:31.844Z,25.11
2023-03-01T11:06:13.353Z,25.24
2023-03-01T11:08:43.520Z,25.33
2023-03-01T11:11:17.941Z,25.19
2023-03-01T11:13:57.731Z,24.85
2023-03-01T11:16:27.116Z,25.18
2023-03-01T11:19:00.187Z,24.97
2023-03-01T11:21:26.604Z,25.08
2023-03-01T11:23:53.360Z,24.75
2023-03-01T11:26:19.929Z,24.86
2023-03-01T11:28:47.120Z,24.80
2023-03-01T11:31:13.591Z,24.65
2023-03-01T11:33:50.631Z,25.07
2023-03-01T11:36:19.007Z,24.71
2023-03-01T11:38:45.407Z,24.99
2023-03-01T11:41:18.948Z,24.81
2023-03-01T11:44:04.523Z,24.99
2023-03-01T11:46:34.173Z,24.91
2023-03-01T11:49:03.624Z,24.49
2023-03-01T11:51:33.145Z,24.88
2023-03-01T11:54:18.500Z,25.17
2023-03-01T11:56:46.903Z,25.02
2023-03-01T11:59:13.141Z,25.10
2023-03-01T12:01:42.272Z,25.15
2023-03-01T12:04:19.346Z,24.70
2023-03-01T12:06:48.709Z,25.00
2023-03-01T12:09:33.542Z,24.76
2023-03-01T12:12:02.801Z,24.77
2023-03-01T12:14:41.293Z,24.74
2023-03-01T12:17:10.677Z,25.05
2023-03-01T12:19:36.948Z,25.04
2023-03-01T12:22:07.406Z,24.78
2023-03-01T12:24:36.800Z,24.69
2023-03-01T12:27:09.231Z,24.76
2023-03-01T12:29:35.776Z,25.03
2023-03-01T12:32:09.067Z,24.72
2023-03-01T12:34:38.540Z,24.80
2023-03-01T12:37:10.780Z,24.77
2023-03-01T12:39:37.010Z,25.06
2023-03-01T12:42:12.492Z,24.82
2023-03-01T12:44:57.104Z,24.81
2023-03-01T12:47:37.461Z,24.92
2023-03-01T12:50:22.594Z,24.90
2023-03-01T12:52:50.670Z,24.89
2023-03-01T12:55:37.186Z,24.86
2023-03-01T12:58:16.287Z,24.77
2023-03-01T13:00:47.261Z,24.86
2023-03-01T13:03:17.091Z,24.92
2023-03-01T13:05:47.516Z,25.01
2023-03-01T13:08:29.229Z,25.05
2023-03-01T13:11:02.502Z,25.11
2023-03-01T13:13:28.895Z,24.83
2023-03-01T13:15:55.284Z,25.06
2023-03-01T13:18:23.929Z,25.21
2023-03-01T13:20:50.865Z,25.23
2023-03-01T13:23:20.150Z,24.92
2023-03-01T13:26:01.772Z,25.05
2023-03-01T13:28:33.409Z,25.04
2023-03-01T13:30:59.755Z,25.29
2023-03-01T13:33:28.966Z,24.92
2023-03-01T13:35:55.771Z,25.17
2023-03-01T13:38:37.805Z,25.21
2023-03-01T13:41:04.583Z,25.39
2023-03-01T13:43:35.481Z,25.05
2023-03-01T13:46:02.049Z,25.31
2023-03-01T13:48:29.048Z,24.95
2023-03-01T13:51:02.720Z,25.07
2023-03-01T13:53:30.703Z,25.10
2023-03-01T13:55:59.841Z,25.50
2023-03-01T13:58:30.407Z,25.36
2023-03-01T14:00:57.509Z,25.38
2023-03-01T14:03:23.972Z,25.49
2023-03-01T14:06:15.686Z,25.62
2023-03-01T14:08:43.134Z,25.75
2023-03-01T14:11:28.457Z,25.44
2023-03-01T14:14:02.325Z,25.83
2023-03-01T14:16:28.743Z,25.56
2023-03-01T14:18:58.801Z,25.77
2023-03-01T14:21:26.607Z,25.82
2023-03-01T14:23:53.495Z,25.64
2023-03-01T14:26:22.982Z,25.06
2023-03-01T14:28:49.386Z,25.05
2023-03-01T14:31:33.034Z,25.21
2023-03-01T14:34:02.638Z,25.53
2023-03-01T14:36:29.936Z,25.46
2023-03-01T14:38:56.443Z,25.87
2023-03-01T14:41:24.613Z,25.80
2023-03-01T14:44:07.709Z,25.91
2023-03-01T14:46:44.193Z,26.00
2023-03-01T14:49:14.731Z,25.91
2023-03-01T14:51:41.298Z,26.08
2023-03-01T14:54:27.341Z,26.07
2023-03-01T14:56:54.033Z,26.20
2023-03-01T14:59:23.993Z,26.19
2023-03-01T15:01:50.927Z,26.22
2023-03-01T15:04:17.333Z,26.00
2023-03-01T15:06:43.692Z,25.86
2023-03-01T15:09:13.067Z,25.80
2023-03-01T15:11:42.330Z,25.40
2023-03-01T15:14:27.153Z,25.81
2023-03-01T15:16:53.543Z,25.84
2023-03-01T15:19:20.070Z,25.87
2023-03-01T15:21:47.889Z,26.04
2023-03-01T15:24:20.621Z,26.08
2023-03-01T15:26:52.169Z,26.45
2023-03-01T15:29:19.407Z,26.65
2023-03-01T15:31:54.543Z,26.75
2023-03-01T15:34:24.881Z,26.72
2023-03-01T15:36:51.839Z,26.79
2023-03-01T15:39:44.616Z,26.73
2023-03-01T15:42:26.318Z,26.83
2023-03-01T15:44:58.862Z,27.09
2023-03-01T15:47:31.458Z,27.12
2023-03-01T15:49:58.144Z,27.14
2023-03-01T15:52:31.840Z,27.10
2023-03-01T15:55:01.711Z,27.29
2023-03-01T15:57:28.242Z,27.50
2023-03-01T15:59:54.588Z,27.30
2023-03-01T16:02:22.056Z,27.47
2023-03-01T16:04:49.669Z,27.43
2023-03-01T16:07:16.001Z,27.32
2023-03-01T16:09:42.858Z,27.34
2023-03-01T16:12:15.875Z,27.23
2023-03-01T16:14:42.205Z,27.18
2023-03-01T16:17:10.975Z,27.24
2023-03-01T16:19:38.480Z,27.45
2023-03-01T16:22:04.846Z,27.44
2023-03-01T16:24:31.165Z,27.33
2023-03-01T16:26:57.473Z,27.49
2023-03-01T16:29:24.078Z,27.49
2023-03-01T16:31:50.549Z,27.48
2023-03-01T16:34:17.102Z,27.53
2023-03-01T16:36:43.554Z,27.60
2023-03-01T16:39:10.293Z,27.56
2023-03-01T16:41:36.609Z,27.42
2023-03-01T16:44:02.962Z,27.38
2023-03-01T16:46:29.351Z,27.56
2023-03-01T16:48:55.748Z,27.71
2023-03-01T16:51:22.203Z,27.86
2023-03-01T16:53:48.646Z,28.12
2023-03-01T16:56:15.017Z,28.37
2023-03-01T16:58:41.451Z,28.63
2023-03-01T17:01:08.472Z,28.46
2023-03-01T17:03:34.821Z,28.50
2023-03-01T17:06:08.345Z,28.14
2023-03-01T17:08:34.689Z,28.64
2023-03-01T17:11:19.578Z,28.23
2023-03-01T17:13:45.894Z,28.24
2023-03-01T17:16:13.062Z,28.65
2023-03-01T17:18:39.488Z,28.71
2023-03-01T17:21:06.111Z,28.67
2023-03-01T17:23:32.426Z,28.39
2023-03-01T17:25:58.743Z,28.17
2023-03-01T17:28:25.852Z,28.38
2023-03-01T17:30:52.406Z,28.26
2023-03-01T17:33:18.808Z,28.41
2023-03-01T17:35:47.198Z,28.56
2023-03-01T17:38:16.558Z,28.49
2023-03-01T17:40:42.899Z,28.45
2023-03-01T17:43:09.472Z,28.35
2023-03-01T17:45:36.905Z,28.41
2023-03-01T17:48:03.617Z,28.58
2023-03-01T17:50:29.973Z,28.61
2023-03-01T17:52:56.329Z,28.64
2023-03-01T17:55:22.637Z,28.50
2023-03-01T17:57:48.950Z,28.59
2023-03-01T18:00:15.605Z,28.43
2023-03-01T18:02:42.433Z,28.46
2023-03-01T18:05:08.955Z,28.09
2023-03-01T18:07:35.270Z,28.07
2023-03-01T18:10:01.613Z,28.15
2023-03-01T18:12:27.944Z,28.00
2023-03-01T18:14:54.264Z,28.16
2023-03-01T18:17:23.009Z,28.18
2023-03-01T18:19:50.349Z,28.09
2023-03-01T18:22:16.661Z,28.13
2023-03-01T18:24:43.023Z,28.28
2023-03-01T18:30:32.736Z,28.91
2023-03-01T18:32:59.055Z,28.89
2023-03-01T18:35:25.369Z,29.23
2023-03-01T18:37:51.837Z,29.54
2023-03-01T18:40:18.184Z,29.63
2023-03-01T18:42:44.491Z,29.22
2023-03-01T18:45:14.516Z,29.54
2023-03-01T18:47:41.145Z,30.38
2023-03-01T18:50:07.644Z,30.72
2023-03-01T18:52:33.954Z,29.74
2023-03-01T18:55:00.283Z,29.67
2023-03-01T18:57:26.601Z,29.41
2023-03-01T18:59:52.940Z,29.57
2023-03-01T19:02:19.342Z,29.45
2023-03-01T19:04:45.773Z,29.40
2023-03-01T19:07:12.497Z,28.96
2023-03-01T19:09:39.295Z,28.97
2023-03-01T19:12:06.185Z,29.23
2023-03-01T19:14:32.541Z,28.90
2023-03-01T19:16:58.850Z,29.06
2023-03-01T19:19:25.155Z,29.07
2023-03-01T19:22:04.895Z,28.98
2023-03-01T19:24:32.795Z,29.22
2023-03-01T19:26:59.115Z,29.26
2023-03-01T19:29:26.265Z,28.93
2023-03-01T19:31:52.633Z,29.23
2023-03-01T19:34:19.017Z,28.97
2023-03-01T19:36:45.730Z,29.29
2023-03-01T19:39:13.398Z,29.32
2023-03-01T19:41:39.878Z,29.31
2023-03-01T19:44:06.335Z,29.34
2023-03-01T19:46:33.615Z,29.11
2023-03-01T19:49:01.000Z,29.37
2023-03-01T19:51:27.445Z,29.46
2023-03-01T19:53:54.801Z,29.59
2023-03-01T19:56:21.279Z,29.41
2023-03-01T19:58:50.081Z,29.49
2023-03-01T20:01:20.004Z,29.32
2023-03-01T20:03:46.412Z,29.37
2023-03-01T20:06:16.592Z,29.54
2023-03-01T20:08:44.506Z,29.47
2023-03-01T20:11:11.257Z,29.54
2023-03-01T20:13:37.628Z,29.42
2023-03-01T20:16:04.291Z,29.73
2023-03-01T20:18:30.629Z,29.57
2023-03-01T20:20:57.828Z,29.68
2023-03-01T20:23:24.176Z,29.78
2023-03-01T20:25:50.584Z,29.83
2023-03-01T20:28:17.328Z,29.96
2023-03-01T20:30:43.793Z,29.58
2023-03-01T20:33:10.107Z,29.58
2023-03-01T20:35:36.563Z,29.06
2023-03-01T20:38:03.314Z,29.53
2023-03-01T20:40:29.690Z,29.40
2023-03-01T20:42:55.992Z,29.22
2023-03-01T20:45:22.294Z,29.50
2023-03-01T20:47:48.859Z,29.39
2023-03-01T20:50:15.414Z,29.15
2023-03-01T20:52:47.274Z,28.90
2023-03-01T20:55:14.204Z,28.61
2023-03-01T20:57:40.545Z,28.97
2023-03-01T21:00:07.185Z,28.87
2023-03-01T21:02:33.514Z,28.67
2023-03-01T21:04:59.820Z,28.30
2023-03-01T21:07:26.154Z,28.04
2023-03-01T21:09:52.511Z,28.02
2023-03-01T21:12:18.866Z,28.68
2023-03-01T21:14:47.109Z,28.63
2023-03-01T21:17:14.330Z,28.56
2023-03-01T21:19:43.544Z,28.69
2023-03-01T21:22:10.330Z,28.66
2023-03-01T21:24:36.885Z,28.79
2023-03-01T21:27:06.499Z,29.15
2023-03-01T21:29:42.867Z,28.74
2023-03-01T21:32:09.556Z,28.78
2023-03-01T21:34:36.264Z,28.82
2023-03-01T21:37:02.620Z,28.97
2023-03-01T21:39:29.124Z,27.30
2023-03-01T21:41:56.376Z,27.73
2023-03-01T21:44:23.340Z,27.33
2023-03-01T21:46:49.914Z,27.28
2023-03-01T21:49:16.229Z,27.53
2023-03-01T21:51:42.569Z,27.27
2023-03-01T21:54:09.644Z,27.28
2023-03-01T21:56:38.847Z,27.38
2023-03-01T21:59:05.911Z,27.52
2023-03-01T22:01:32.422Z,27.34
2023-03-01T22:03:59.275Z,27.55
2023-03-01T22:06:28.112Z,27.47
2023-03-01T22:08:58.501Z,27.61
2023-03-01T22:11:26.244Z,27.51
2023-03-01T22:13:52.736Z,27.47
2023-03-01T22:16:19.586Z,27.38
2023-03-01T22:18:46.081Z,27.23
2023-03-01T22:21:12.415Z,27.31
2023-03-01T22:23:38.910Z,27.40
2023-03-01T22:26:05.247Z,27.50
2023-03-01T22:28:31.564Z,27.46
2023-03-01T22:30:57.893Z,27.40
2023-03-01T22:33:24.223Z,27.26
2023-03-01T22:35:50.613Z,27.50
2023-03-01T22:38:16.948Z,27.38
2023-03-01T22:40:43.274Z,27.15
2023-03-01T22:43:09.586Z,27.24
2023-03-01T22:45:35.984Z,27.39
2023-03-01T22:48:04.778Z,27.28
2023-03-01T22:50:31.096Z,27.36
2023-03-01T22:52:57.496Z,27.24
2023-03-01T22:55:23.827Z,27.41
2023-03-01T22:57:50.591Z,27.18
2023-03-01T23:00:17.134Z,27.17
2023-03-01T23:02:43.570Z,27.42
2023-03-01T23:05:09.940Z,27.36
2023-03-01T23:07:37.366Z,27.31
2023-03-01T23:10:04.591Z,27.24
2023-03-01T23:12:30.931Z,27.17
2023-03-01T23:14:57.343Z,27.25
2023-03-01T23:17:23.852Z,27.25
2023-03-01T23:19:51.290Z,27.21
2023-03-01T23:22:18.283Z,27.19
2023-03-01T23:24:44.650Z,26.92
2023-03-01T23:27:13.851Z,26.90
2023-03-01T23:29:40.197Z,27.00
2023-03-01T23:32:06.690Z,26.82
2023-03-01T23:34:33.095Z,26.73
2023-03-01T23:36:59.436Z,26.92
2023-03-01T23:39:25.943Z,26.86
2023-03-01T23:41:52.292Z,26.96
2023-03-01T23:44:19.285Z,27.04
2023-03-01T23:46:45.888Z,27.16
2023-03-01T23:49:12.862Z,27.32
2023-03-01T23:51:44.444Z,27.16
2023-03-01T23:54:11.126Z,27.09
2023-03-01T23:56:38.410Z,27.28
2023-03-01T23:59:06.320Z,27.08
